createdAt,value
2019-06-15T00:01:58.017Z,6.50
2019-06-15T00:04:28.470Z,6.50
2019-06-15T00:06:58.966Z,6.47
2019-06-15T00:09:29.411Z,6.73
2019-06-15T00:11:59.899Z,6.53
2019-06-15T00:14:30.411Z,6.73
2019-06-15T00:17:00.856Z,6.23
2019-06-15T00:19:31.464Z,6.63
2019-06-15T00:22:01.982Z,6.50
2019-06-15T00:24:35.611Z,6.40
2019-06-15T00:27:04.875Z,6.70
2019-06-15T00:29:35.333Z,6.67
2019-06-15T00:32:05.807Z,6.60
2019-06-15T00:34:36.251Z,7.00
2019-06-15T00:37:06.728Z,7.13
2019-06-15T00:39:37.183Z,6.80
2019-06-15T00:42:07.669Z,6.80
2019-06-15T00:44:38.194Z,7.40
2019-06-15T00:47:08.713Z,6.53
2019-06-15T00:49:39.196Z,6.80
2019-06-15T00:52:09.709Z,6.67
2019-06-15T00:54:49.984Z,7.90
2019-06-15T00:57:12.360Z,7.43
2019-06-15T00:59:42.863Z,7.70
2019-06-15T01:02:13.324Z,8.20
2019-06-15T01:04:43.803Z,8.10
2019-06-15T01:07:14.286Z,7.37
2019-06-15T01:09:44.735Z,7.10
2019-06-15T01:12:15.231Z,7.20
2019-06-15T01:14:45.673Z,6.93
2019-06-15T01:17:16.124Z,7.07
2019-06-15T01:19:46.610Z,6.40
2019-06-15T01:22:17.052Z,6.47
2019-06-15T01:24:47.562Z,5.87
2019-06-15T01:27:18.008Z,6.00
2019-06-15T01:29:48.471Z,5.93
2019-06-15T01:32:19.051Z,5.97
2019-06-15T01:34:49.503Z,6.30
2019-06-15T01:37:19.993Z,6.20
2019-06-15T01:39:50.484Z,6.60
2019-06-15T01:42:21.014Z,6.03
2019-06-15T01:44:51.578Z,6.50
2019-06-15T01:47:22.199Z,6.17
2019-06-15T01:49:52.728Z,6.10
2019-06-15T01:52:23.201Z,6.40
2019-06-15T01:54:53.647Z,6.30
2019-06-15T01:57:24.147Z,6.60
2019-06-15T01:59:54.599Z,6.50
2019-06-15T02:02:25.162Z,6.73
2019-06-15T02:04:55.689Z,7.30
2019-06-15T02:07:26.201Z,7.00
2019-06-15T02:09:56.690Z,7.40
2019-06-15T02:12:27.153Z,6.87
2019-06-15T02:14:57.648Z,6.33
2019-06-15T02:17:28.108Z,7.30
2019-06-15T02:19:58.600Z,7.03
2019-06-15T02:22:29.109Z,6.93
2019-06-15T02:24:59.536Z,6.63
2019-06-15T02:27:29.985Z,6.47
2019-06-15T02:30:00.544Z,6.90
2019-06-15T02:32:31.010Z,6.80
2019-06-15T02:35:01.552Z,7.43
2019-06-15T02:37:31.995Z,7.00
2019-06-15T02:40:02.508Z,7.07
2019-06-15T02:42:32.997Z,7.03
2019-06-15T02:45:03.449Z,7.23
2019-06-15T02:47:33.933Z,7.03
2019-06-15T02:50:04.690Z,7.07
2019-06-15T02:52:35.276Z,6.70
2019-06-15T02:55:06.008Z,7.20
2019-06-15T02:57:36.779Z,7.33
2019-06-15T03:00:07.914Z,7.30
2019-06-15T03:02:38.489Z,7.47
2019-06-15T03:05:09.140Z,7.90
2019-06-15T03:07:39.941Z,8.17
2019-06-15T03:10:10.821Z,7.80
2019-06-15T03:12:41.513Z,7.33
2019-06-15T03:15:12.188Z,7.10
2019-06-15T03:17:42.675Z,7.80
2019-06-15T03:20:13.328Z,7.37
2019-06-15T03:22:43.814Z,7.57
2019-06-15T03:25:14.565Z,8.50
2019-06-15T03:27:45.043Z,7.60
2019-06-15T03:30:16.657Z,8.00
2019-06-15T03:32:47.142Z,7.43
2019-06-15T03:35:19.416Z,8.03
2019-06-15T03:37:50.022Z,7.07
2019-06-15T03:40:20.513Z,8.30
2019-06-15T03:42:50.975Z,7.80
2019-06-15T03:45:21.559Z,7.63
2019-06-15T03:47:52.147Z,8.30
2019-06-15T03:50:23.078Z,8.40
2019-06-15T03:52:53.596Z,8.10
2019-06-15T03:55:24.043Z,8.13
2019-06-15T03:57:54.496Z,8.60
2019-06-15T04:00:47.786Z,8.30
2019-06-15T04:03:18.336Z,8.27
2019-06-15T04:05:48.894Z,8.13
2019-06-15T04:08:19.400Z,7.60
2019-06-15T04:10:49.860Z,8.07
2019-06-15T04:13:20.344Z,7.33
2019-06-15T04:15:50.818Z,8.50
2019-06-15T04:18:21.314Z,8.83
2019-06-15T04:20:51.771Z,8.17
2019-06-15T04:23:22.276Z,8.03
2019-06-15T04:25:52.774Z,8.97
2019-06-15T04:28:23.260Z,8.13
2019-06-15T04:30:53.763Z,8.47
2019-06-15T04:33:24.245Z,9.03
2019-06-15T04:35:54.700Z,8.80
2019-06-15T04:38:25.195Z,8.40
2019-06-15T04:40:55.650Z,9.10
2019-06-15T04:43:26.163Z,9.00
2019-06-15T04:45:56.819Z,8.33
2019-06-15T04:48:27.339Z,8.73
2019-06-15T04:50:57.832Z,9.40
2019-06-15T04:53:28.405Z,8.80
2019-06-15T04:55:58.967Z,8.93
2019-06-15T04:58:29.461Z,8.70
2019-06-15T05:01:00.122Z,8.90
2019-06-15T05:03:30.619Z,8.40
2019-06-15T05:06:01.127Z,8.73
2019-06-15T05:08:31.688Z,9.13
2019-06-15T05:11:03.677Z,8.90
2019-06-15T05:13:34.328Z,9.20
2019-06-15T05:16:05.016Z,9.07
2019-06-15T05:18:35.505Z,8.67
2019-06-15T05:21:06.258Z,8.93
2019-06-15T05:23:36.750Z,8.40
2019-06-15T05:26:07.284Z,9.17
2019-06-15T05:28:37.782Z,8.70
2019-06-15T05:31:08.273Z,7.47
2019-06-15T05:33:38.732Z,8.47
2019-06-15T05:36:09.248Z,7.90
2019-06-15T05:38:39.720Z,10.43
2019-06-15T05:41:10.191Z,7.80
2019-06-15T05:43:40.708Z,8.47
2019-06-15T05:46:11.150Z,8.20
2019-06-15T05:48:41.641Z,8.03
2019-06-15T05:51:12.282Z,7.93
2019-06-15T05:53:42.729Z,7.67
2019-06-15T05:56:13.273Z,7.27
2019-06-15T05:58:43.740Z,7.47
2019-06-15T06:01:14.197Z,7.63
2019-06-15T06:03:44.713Z,6.70
2019-06-15T06:06:15.143Z,6.73
2019-06-15T06:08:45.688Z,6.97
2019-06-15T06:11:16.141Z,6.43
2019-06-15T06:13:46.657Z,6.80
2019-06-15T06:16:17.138Z,7.10
2019-06-15T06:18:47.620Z,6.33
2019-06-15T06:21:18.082Z,7.33
2019-06-15T06:23:48.624Z,7.00
2019-06-15T06:26:19.109Z,6.13
2019-06-15T06:28:57.295Z,6.00
2019-06-15T06:31:21.780Z,6.20
2019-06-15T06:33:52.237Z,6.07
2019-06-15T06:36:22.764Z,6.63
2019-06-15T06:38:53.252Z,6.00
2019-06-15T06:41:23.755Z,5.90
2019-06-15T06:43:54.222Z,6.70
2019-06-15T06:46:24.735Z,6.90
2019-06-15T06:48:55.289Z,5.70
2019-06-15T06:51:25.796Z,5.90
2019-06-15T06:53:56.249Z,5.87
2019-06-15T06:56:26.775Z,6.40
2019-06-15T06:58:57.283Z,5.40
2019-06-15T07:01:27.787Z,5.10
2019-06-15T07:03:58.250Z,5.20
2019-06-15T07:06:28.768Z,5.17
2019-06-15T07:08:59.227Z,6.00
2019-06-15T07:11:29.727Z,5.50
2019-06-15T07:14:00.168Z,4.93
2019-06-15T07:16:30.685Z,4.57
2019-06-15T07:19:01.198Z,6.63
2019-06-15T07:21:31.729Z,5.70
2019-06-15T07:24:02.179Z,4.93
2019-06-15T07:26:32.681Z,5.00
2019-06-15T07:29:03.248Z,5.23
2019-06-15T07:31:33.713Z,5.30
2019-06-15T07:34:04.282Z,5.70
2019-06-15T07:36:34.773Z,5.17
2019-06-15T07:39:07.174Z,5.20
2019-06-15T07:41:37.634Z,5.93
2019-06-15T07:44:08.192Z,4.80
2019-06-15T07:46:38.692Z,5.10
2019-06-15T07:49:09.193Z,4.83
2019-06-15T07:51:39.694Z,4.67
2019-06-15T07:54:10.203Z,4.60
2019-06-15T07:56:40.741Z,4.57
2019-06-15T07:59:11.204Z,5.33
2019-06-15T08:01:41.711Z,5.00
2019-06-15T08:04:12.168Z,5.60
2019-06-15T08:06:42.707Z,4.60
2019-06-15T08:09:13.145Z,4.70
2019-06-15T08:11:45.842Z,5.28
2019-06-15T08:14:16.135Z,4.87
2019-06-15T08:16:46.626Z,4.80
2019-06-15T08:19:17.115Z,4.13
2019-06-15T08:21:47.588Z,4.30
2019-06-15T08:24:18.058Z,4.80
2019-06-15T08:26:48.679Z,4.73
2019-06-15T08:29:19.149Z,4.80
2019-06-15T08:31:49.663Z,4.93
2019-06-15T08:34:20.131Z,5.33
2019-06-15T08:36:50.637Z,4.93
2019-06-15T08:39:21.092Z,4.57
2019-06-15T08:41:51.608Z,5.70
2019-06-15T08:44:22.132Z,4.40
2019-06-15T08:46:52.558Z,4.40
2019-06-15T08:49:23.060Z,4.63
2019-06-15T08:51:53.521Z,4.63
2019-06-15T08:54:24.069Z,4.47
2019-06-15T08:56:54.560Z,4.73
2019-06-15T08:59:25.032Z,4.00
2019-06-15T09:01:55.530Z,4.80
2019-06-15T09:04:25.990Z,4.33
2019-06-15T09:06:56.487Z,4.40
2019-06-15T09:09:26.995Z,4.27
2019-06-15T09:11:57.442Z,4.00
2019-06-15T09:14:27.893Z,4.20
2019-06-15T09:16:58.424Z,3.75
2019-06-15T09:19:28.935Z,4.40
2019-06-15T09:21:59.392Z,4.20
2019-06-15T09:24:29.921Z,4.10
2019-06-15T09:27:00.375Z,3.80
2019-06-15T09:29:30.931Z,4.00
2019-06-15T09:32:01.397Z,3.85
2019-06-15T09:34:31.972Z,4.40
2019-06-15T09:37:02.472Z,4.40
2019-06-15T09:39:33.033Z,4.17
2019-06-15T09:42:03.537Z,4.10
2019-06-15T09:44:34.001Z,4.77
2019-06-15T09:47:04.652Z,4.60
2019-06-15T09:49:35.114Z,4.28
2019-06-15T09:52:05.620Z,4.57
2019-06-15T09:54:36.104Z,4.10
2019-06-15T09:57:07.495Z,4.00
2019-06-15T09:59:38.543Z,4.15
2019-06-15T10:02:09.075Z,3.85
2019-06-15T10:04:39.540Z,3.83
2019-06-15T10:07:10.037Z,3.45
2019-06-15T10:09:40.609Z,3.52
2019-06-15T10:12:11.197Z,3.60
2019-06-15T10:14:41.655Z,3.22
2019-06-15T10:17:12.192Z,3.50
2019-06-15T10:19:42.688Z,3.58
2019-06-15T10:22:13.203Z,3.42
2019-06-15T10:24:43.700Z,3.47
2019-06-15T10:27:14.213Z,3.43
2019-06-15T10:29:44.667Z,3.63
2019-06-15T10:32:15.184Z,3.50
2019-06-15T10:34:45.710Z,3.27
2019-06-15T10:37:16.207Z,3.70
2019-06-15T10:39:46.721Z,3.65
2019-06-15T10:42:17.176Z,3.30
2019-06-15T10:44:47.691Z,3.62
2019-06-15T10:47:18.151Z,3.67
2019-06-15T10:49:48.671Z,3.35
2019-06-15T10:52:19.166Z,3.60
2019-06-15T10:54:49.680Z,3.62
2019-06-15T10:57:20.138Z,3.08
2019-06-15T10:59:57.181Z,3.20
2019-06-15T11:02:22.879Z,3.58
2019-06-15T11:04:53.472Z,3.65
2019-06-15T11:07:23.927Z,3.40
2019-06-15T11:09:54.527Z,3.90
2019-06-15T11:12:24.985Z,3.58
2019-06-15T11:14:55.484Z,3.67
2019-06-15T11:17:26.047Z,3.50
2019-06-15T11:19:56.560Z,3.47
2019-06-15T11:22:26.999Z,3.50
2019-06-15T11:24:57.493Z,3.67
2019-06-15T11:27:27.953Z,3.97
2019-06-15T11:30:12.576Z,3.70
2019-06-15T11:32:30.743Z,3.95
2019-06-15T11:35:01.399Z,3.50
2019-06-15T11:37:32.307Z,3.55
2019-06-15T11:40:02.816Z,3.33
2019-06-15T11:42:34.270Z,3.20
2019-06-15T11:45:04.949Z,3.40
2019-06-15T11:47:35.393Z,3.40
2019-06-15T11:50:07.364Z,3.40
2019-06-15T11:52:37.895Z,3.30
2019-06-15T11:55:08.551Z,3.30
2019-06-15T11:57:39.053Z,3.75
2019-06-15T12:00:09.785Z,3.37
2019-06-15T12:02:40.328Z,3.70
2019-06-15T12:05:10.902Z,3.33
2019-06-15T12:07:41.504Z,3.60
2019-06-15T12:10:12.212Z,3.70
2019-06-15T12:12:42.725Z,3.40
2019-06-15T12:15:14.702Z,3.75
2019-06-15T12:17:45.160Z,4.00
2019-06-15T12:20:15.869Z,3.70
2019-06-15T12:22:46.321Z,3.50
2019-06-15T12:25:17.048Z,3.40
2019-06-15T12:27:47.496Z,3.40
2019-06-15T12:30:22.238Z,3.80
2019-06-15T12:32:52.702Z,3.70
2019-06-15T12:35:23.244Z,3.77
2019-06-15T12:37:53.707Z,3.58
2019-06-15T12:40:24.164Z,3.58
2019-06-15T12:42:54.687Z,3.42
2019-06-15T12:45:25.240Z,3.40
2019-06-15T12:47:55.954Z,3.37
2019-06-15T12:50:26.537Z,3.98
2019-06-15T12:52:57.015Z,3.50
2019-06-15T12:55:27.468Z,3.42
2019-06-15T12:57:57.965Z,3.20
2019-06-15T13:00:34.096Z,3.60
2019-06-15T13:03:04.706Z,3.33
2019-06-15T13:05:35.342Z,3.12
2019-06-15T13:08:06.345Z,3.00
2019-06-15T13:10:36.813Z,3.30
2019-06-15T13:13:07.299Z,3.40
2019-06-15T13:15:37.802Z,3.75
2019-06-15T13:18:08.253Z,3.58
2019-06-15T13:20:38.756Z,3.40
2019-06-15T13:23:09.214Z,3.67
2019-06-15T13:25:39.774Z,4.30
2019-06-15T13:28:10.311Z,3.87
2019-06-15T13:30:40.810Z,3.40
2019-06-15T13:33:11.341Z,3.80
2019-06-15T13:35:41.799Z,3.80
2019-06-15T13:38:12.316Z,4.67
2019-06-15T13:40:42.845Z,4.12
2019-06-15T13:43:13.380Z,3.95
2019-06-15T13:45:43.828Z,3.90
2019-06-15T13:48:14.291Z,4.08
2019-06-15T13:50:44.799Z,3.80
2019-06-15T13:53:15.258Z,3.95
2019-06-15T13:55:45.748Z,3.90
2019-06-15T13:58:16.209Z,4.15
2019-06-15T14:00:46.803Z,4.50
2019-06-15T14:03:17.292Z,4.00
2019-06-15T14:05:47.748Z,3.97
2019-06-15T14:08:18.357Z,4.20
2019-06-15T14:10:48.869Z,3.90
2019-06-15T14:13:19.320Z,4.10
2019-06-15T14:15:49.837Z,4.10
2019-06-15T14:18:20.297Z,4.00
2019-06-15T14:20:50.814Z,3.90
2019-06-15T14:23:21.268Z,3.67
2019-06-15T14:25:51.797Z,3.80
2019-06-15T14:28:22.300Z,4.10
2019-06-15T14:30:52.760Z,3.47
2019-06-15T14:33:23.563Z,3.95
2019-06-15T14:35:54.048Z,4.33
2019-06-15T14:38:24.551Z,3.98
2019-06-15T14:40:55.005Z,4.00
2019-06-15T14:43:25.453Z,3.98
2019-06-15T14:45:59.830Z,3.80
2019-06-15T14:48:28.148Z,3.67
2019-06-15T14:50:58.608Z,4.07
2019-06-15T14:53:29.150Z,4.00
2019-06-15T14:55:59.613Z,4.12
2019-06-15T14:58:30.136Z,3.90
2019-06-15T15:01:00.638Z,3.90
2019-06-15T15:03:31.098Z,4.05
2019-06-15T15:06:01.597Z,3.93
2019-06-15T15:08:32.045Z,4.03
2019-06-15T15:11:06.463Z,4.13
2019-06-15T15:13:36.581Z,4.17
2019-06-15T15:16:07.314Z,4.25
2019-06-15T15:18:37.735Z,4.20
2019-06-15T15:21:08.323Z,3.95
2019-06-15T15:23:38.831Z,3.90
2019-06-15T15:26:09.452Z,7.47
2019-06-15T15:28:39.921Z,4.23
2019-06-15T15:31:10.446Z,4.40
2019-06-15T15:33:40.896Z,4.10
2019-06-15T15:36:11.399Z,4.00
2019-06-15T15:38:41.847Z,4.20
2019-06-15T15:41:12.405Z,4.17
2019-06-15T15:43:42.901Z,3.93
2019-06-15T15:46:16.220Z,4.30
2019-06-15T15:48:47.045Z,4.23
2019-06-15T15:51:17.728Z,4.17
2019-06-15T15:53:48.245Z,3.80
2019-06-15T15:56:18.696Z,4.20
2019-06-15T15:58:49.153Z,3.77
2019-06-15T16:01:19.609Z,4.23
2019-06-15T16:03:50.125Z,4.20
2019-06-15T16:06:20.583Z,4.10
2019-06-15T16:08:51.105Z,4.20
2019-06-15T16:11:21.560Z,4.20
2019-06-15T16:13:52.147Z,4.33
2019-06-15T16:16:22.598Z,4.27
2019-06-15T16:18:53.098Z,4.30
2019-06-15T16:21:25.895Z,4.10
2019-06-15T16:23:58.278Z,4.30
2019-06-15T16:26:27.941Z,3.87
2019-06-15T16:28:58.481Z,4.20
2019-06-15T16:31:29.429Z,4.43
2019-06-15T16:34:00.021Z,4.80
2019-06-15T16:36:30.534Z,4.53
2019-06-15T16:39:00.985Z,4.20
2019-06-15T16:41:31.488Z,4.37
2019-06-15T16:44:01.971Z,4.63
2019-06-15T16:46:32.457Z,4.90
2019-06-15T16:49:02.917Z,4.33
2019-06-15T16:51:36.139Z,4.27
2019-06-15T16:54:06.717Z,4.47
2019-06-15T16:56:37.176Z,4.43
2019-06-15T16:59:07.673Z,4.53
2019-06-15T17:01:38.227Z,4.33
2019-06-15T17:04:10.279Z,4.80
2019-06-15T17:06:40.959Z,4.40
2019-06-15T17:09:11.453Z,4.30
2019-06-15T17:11:41.915Z,4.27
2019-06-15T17:14:12.388Z,4.83
2019-06-15T17:16:42.779Z,4.60
2019-06-15T17:19:13.237Z,4.30
2019-06-15T17:21:43.643Z,4.50
2019-06-15T17:24:14.139Z,4.77
2019-06-15T17:26:46.657Z,4.50
2019-06-15T17:29:16.679Z,5.00
2019-06-15T17:31:47.148Z,4.87
2019-06-15T17:34:17.715Z,4.57
2019-06-15T17:36:48.135Z,5.07
2019-06-15T17:39:18.596Z,4.67
2019-06-15T17:41:49.075Z,5.03
2019-06-15T17:44:19.527Z,5.00
2019-06-15T17:46:50.036Z,5.17
2019-06-15T17:49:20.525Z,5.13
2019-06-15T17:51:50.988Z,5.30
2019-06-15T17:54:21.499Z,5.30
2019-06-15T17:56:51.964Z,5.13
2019-06-15T17:59:22.569Z,5.17
2019-06-15T18:01:53.115Z,5.00
2019-06-15T18:04:23.568Z,4.87
2019-06-15T18:06:56.791Z,4.83
2019-06-15T18:09:26.403Z,5.13
2019-06-15T18:11:57.247Z,5.17
2019-06-15T18:14:27.751Z,5.37
2019-06-15T18:16:58.387Z,5.80
2019-06-15T18:19:28.783Z,5.73
2019-06-15T18:21:59.244Z,5.40
2019-06-15T18:24:29.752Z,5.67
2019-06-15T18:27:00.200Z,5.77
2019-06-15T18:29:30.705Z,5.83
2019-06-15T18:32:01.241Z,5.67
2019-06-15T18:34:31.680Z,5.90
2019-06-15T18:37:02.235Z,5.70
2019-06-15T18:39:32.677Z,6.27
2019-06-15T18:42:03.200Z,6.40
2019-06-15T18:44:33.725Z,5.77
2019-06-15T18:47:04.173Z,5.90
2019-06-15T18:49:36.261Z,5.30
2019-06-15T18:52:06.815Z,5.77
2019-06-15T18:54:37.474Z,6.00
2019-06-15T18:57:07.931Z,6.13
2019-06-15T18:59:38.401Z,6.77
2019-06-15T19:02:09.143Z,6.53
2019-06-15T19:04:39.605Z,5.63
2019-06-15T19:07:10.129Z,6.03
2019-06-15T19:09:40.600Z,5.40
2019-06-15T19:12:11.205Z,5.37
2019-06-15T19:14:41.761Z,5.70
2019-06-15T19:17:12.266Z,5.40
2019-06-15T19:19:42.736Z,4.77
2019-06-15T19:22:13.244Z,5.40
2019-06-15T19:24:47.314Z,5.83
2019-06-15T19:27:16.194Z,5.30
2019-06-15T19:29:46.784Z,6.27
2019-06-15T19:32:17.421Z,5.90
2019-06-15T19:34:51.112Z,5.93
2019-06-15T19:37:20.204Z,4.90
2019-06-15T19:39:50.669Z,5.20
2019-06-15T19:42:21.168Z,4.70
2019-06-15T19:44:51.665Z,5.23
2019-06-15T19:47:22.161Z,5.33
2019-06-15T19:49:52.625Z,5.20
2019-06-15T19:52:23.173Z,5.13
2019-06-15T19:54:53.622Z,5.60
2019-06-15T19:57:27.179Z,4.93
2019-06-15T19:59:57.699Z,5.70
2019-06-15T20:02:28.224Z,5.63
2019-06-15T20:05:03.407Z,5.40
2019-06-15T20:07:30.883Z,5.53
2019-06-15T20:10:03.278Z,5.40
2019-06-15T20:12:37.435Z,5.33
2019-06-15T20:15:10.003Z,5.20
2019-06-15T20:17:40.544Z,5.20
2019-06-15T20:20:11.567Z,5.07
2019-06-15T20:22:42.069Z,5.40
2019-06-15T20:25:12.828Z,5.37
2019-06-15T20:27:43.333Z,4.50
2019-06-15T20:30:16.835Z,5.10
2019-06-15T20:32:46.385Z,5.27
2019-06-15T20:35:21.084Z,6.10
2019-06-15T20:37:49.163Z,5.23
2019-06-15T20:40:19.636Z,5.20
2019-06-15T20:42:50.145Z,4.70
2019-06-15T20:45:20.710Z,4.93
2019-06-15T20:47:51.215Z,5.13
2019-06-15T20:50:27.868Z,5.10
2019-06-15T20:52:56.453Z,4.73
2019-06-15T20:55:26.652Z,5.07
2019-06-15T20:57:57.232Z,4.90
2019-06-15T21:00:27.796Z,5.27
2019-06-15T21:02:58.314Z,5.07
2019-06-15T21:05:37.278Z,5.03
2019-06-15T21:08:01.077Z,5.37
2019-06-15T21:10:31.596Z,5.27
2019-06-15T21:13:02.051Z,5.20
2019-06-15T21:15:36.870Z,5.23
2019-06-15T21:18:07.514Z,4.70
2019-06-15T21:20:37.989Z,4.87
2019-06-15T21:23:08.493Z,4.83
2019-06-15T21:25:39.062Z,4.50
2019-06-15T21:28:09.554Z,5.00
2019-06-15T21:30:40.018Z,4.80
2019-06-15T21:33:10.528Z,4.97
2019-06-15T21:35:49.130Z,4.97
2019-06-15T21:38:13.408Z,4.60
2019-06-15T21:40:43.967Z,4.93
2019-06-15T21:43:14.496Z,5.53
2019-06-15T21:45:46.290Z,4.73
2019-06-15T21:48:17.173Z,5.17
2019-06-15T21:50:47.631Z,5.10
2019-06-15T21:53:18.140Z,5.30
2019-06-15T21:55:48.589Z,4.90
2019-06-15T21:58:19.099Z,5.37
2019-06-15T22:01:06.279Z,5.50
2019-06-15T22:03:36.970Z,5.10
2019-06-15T22:06:07.379Z,5.03
2019-06-15T22:08:37.876Z,5.30
2019-06-15T22:11:08.432Z,5.10
2019-06-15T22:13:38.930Z,5.07
2019-06-15T22:16:09.469Z,5.13
2019-06-15T22:18:39.984Z,4.63
2019-06-15T22:21:10.475Z,5.17
2019-06-15T22:23:40.967Z,4.90
2019-06-15T22:26:11.422Z,5.50
2019-06-15T22:28:41.920Z,5.03
2019-06-15T22:31:12.400Z,5.67
2019-06-15T22:33:42.886Z,5.30
2019-06-15T22:36:22.306Z,5.33
2019-06-15T22:38:46.162Z,6.23
2019-06-15T22:41:16.842Z,4.87
2019-06-15T22:43:47.321Z,5.20
2019-06-15T22:46:17.806Z,4.87
2019-06-15T22:48:48.271Z,5.40
2019-06-15T22:51:18.859Z,5.17
2019-06-15T22:53:49.314Z,5.07
2019-06-15T22:56:19.828Z,5.27
2019-06-15T22:58:50.319Z,5.50
2019-06-15T23:01:20.778Z,5.37
2019-06-15T23:03:51.248Z,5.10
2019-06-15T23:06:33.895Z,5.07
2019-06-15T23:08:56.332Z,5.47
2019-06-15T23:11:26.657Z,5.10
2019-06-15T23:13:57.690Z,5.40
2019-06-15T23:16:28.328Z,5.63
2019-06-15T23:18:58.793Z,5.17
2019-06-15T23:21:29.249Z,5.33
2019-06-15T23:23:59.752Z,5.60
2019-06-15T23:26:30.260Z,6.17
2019-06-15T23:29:00.760Z,5.47
2019-06-15T23:31:31.315Z,5.30
2019-06-15T23:34:01.833Z,5.57
2019-06-15T23:36:52.011Z,5.33
2019-06-15T23:39:08.088Z,5.63
2019-06-15T23:41:38.626Z,5.53
2019-06-15T23:44:09.113Z,5.60
2019-06-15T23:46:39.615Z,5.80
2019-06-15T23:49:10.056Z,5.50
2019-06-15T23:51:40.551Z,5.37
2019-06-15T23:54:11.025Z,4.80
2019-06-15T23:56:41.481Z,5.60
2019-06-15T23:59:11.959Z,6.03
